sensor_id;sensor_type;location;lat;lon;timestamp;P1;durP1;ratioP1;P2;durP2;ratioP2
59300;SDS011;45073;52.740;6.784;2022-09-13T00:00:55;17.15;;;14.00;;
59300;SDS011;45073;52.740;6.784;2022-09-13T00:03:21;16.95;;;14.02;;
59300;SDS011;45073;52.740;6.784;2022-09-13T00:05:47;15.70;;;13.00;;
59300;SDS011;45073;52.740;6.784;2022-09-13T00:08:13;15.40;;;13.70;;
59300;SDS011;45073;52.740;6.784;2022-09-13T00:10:39;17.70;;;12.93;;
59300;SDS011;45073;52.740;6.784;2022-09-13T00:13:07;15.63;;;14.02;;
59300;SDS011;45073;52.740;6.784;2022-09-13T00:15:33;16.25;;;13.90;;
59300;SDS011;45073;52.740;6.784;2022-09-13T00:17:59;17.55;;;14.63;;
59300;SDS011;45073;52.740;6.784;2022-09-13T00:20:25;17.42;;;14.38;;
59300;SDS011;45073;52.740;6.784;2022-09-13T00:22:51;16.88;;;15.18;;
59300;SDS011;45073;52.740;6.784;2022-09-13T00:25:17;15.75;;;14.00;;
59300;SDS011;45073;52.740;6.784;2022-09-13T00:27:43;15.45;;;13.77;;
59300;SDS011;45073;52.740;6.784;2022-09-13T00:30:09;15.98;;;14.10;;
59300;SDS011;45073;52.740;6.784;2022-09-13T00:32:35;16.63;;;14.25;;
59300;SDS011;45073;52.740;6.784;2022-09-13T00:35:02;14.60;;;13.10;;
59300;SDS011;45073;52.740;6.784;2022-09-13T00:37:29;14.82;;;13.23;;
59300;SDS011;45073;52.740;6.784;2022-09-13T00:39:57;16.67;;;14.20;;
59300;SDS011;45073;52.740;6.784;2022-09-13T00:42:27;17.08;;;14.57;;
59300;SDS011;45073;52.740;6.784;2022-09-13T00:44:57;15.63;;;13.63;;
59300;SDS011;45073;52.740;6.784;2022-09-13T00:50:03;14.68;;;13.07;;
59300;SDS011;45073;52.740;6.784;2022-09-13T00:52:43;13.55;;;12.00;;
59300;SDS011;45073;52.740;6.784;2022-09-13T00:55:12;13.32;;;11.60;;
59300;SDS011;45073;52.740;6.784;2022-09-13T00:57:45;15.48;;;12.20;;
59300;SDS011;45073;52.740;6.784;2022-09-13T01:00:12;15.57;;;11.95;;
59300;SDS011;45073;52.740;6.784;2022-09-13T01:03:01;14.52;;;11.13;;
59300;SDS011;45073;52.740;6.784;2022-09-13T01:05:32;14.20;;;12.70;;
59300;SDS011;45073;52.740;6.784;2022-09-13T01:08:01;13.98;;;12.25;;
59300;SDS011;45073;52.740;6.784;2022-09-13T01:10:27;14.25;;;10.90;;
59300;SDS011;45073;52.740;6.784;2022-09-13T01:15:25;15.15;;;12.45;;
59300;SDS011;45073;52.740;6.784;2022-09-13T01:17:51;13.90;;;11.70;;
59300;SDS011;45073;52.740;6.784;2022-09-13T01:20:18;13.52;;;11.60;;
59300;SDS011;45073;52.740;6.784;2022-09-13T01:39:23;14.52;;;12.15;;
59300;SDS011;45073;52.740;6.784;2022-09-13T01:44:51;14.23;;;12.73;;
59300;SDS011;45073;52.740;6.784;2022-09-13T01:47:33;16.05;;;13.15;;
59300;SDS011;45073;52.740;6.784;2022-09-13T01:55:12;14.52;;;13.02;;
59300;SDS011;45073;52.740;6.784;2022-09-13T01:57:55;14.77;;;13.15;;
59300;SDS011;45073;52.740;6.784;2022-09-13T02:00:44;16.02;;;14.00;;
59300;SDS011;45073;52.740;6.784;2022-09-13T02:03:32;15.15;;;13.55;;
59300;SDS011;45073;52.740;6.784;2022-09-13T02:06:05;15.98;;;13.93;;
59300;SDS011;45073;52.740;6.784;2022-09-13T02:08:40;16.23;;;14.52;;
59300;SDS011;45073;52.740;6.784;2022-09-13T02:11:18;16.92;;;14.60;;
59300;SDS011;45073;52.740;6.784;2022-09-13T02:14:01;16.70;;;15.00;;
59300;SDS011;45073;52.740;6.784;2022-09-13T02:16:41;15.93;;;14.23;;
59300;SDS011;45073;52.740;6.784;2022-09-13T02:19:16;17.83;;;15.93;;
59300;SDS011;45073;52.740;6.784;2022-09-13T02:21:46;16.13;;;14.43;;
59300;SDS011;45073;52.740;6.784;2022-09-13T02:24:17;17.83;;;15.98;;
59300;SDS011;45073;52.740;6.784;2022-09-13T02:26:49;17.60;;;15.57;;
59300;SDS011;45073;52.740;6.784;2022-09-13T02:29:18;17.77;;;15.98;;
59300;SDS011;45073;52.740;6.784;2022-09-13T02:31:53;18.55;;;16.65;;
59300;SDS011;45073;52.740;6.784;2022-09-13T02:34:44;17.67;;;15.75;;
59300;SDS011;45073;52.740;6.784;2022-09-13T02:37:16;18.88;;;16.98;;
59300;SDS011;45073;52.740;6.784;2022-09-13T02:39:45;19.20;;;17.00;;
59300;SDS011;45073;52.740;6.784;2022-09-13T02:42:18;18.60;;;16.53;;
59300;SDS011;45073;52.740;6.784;2022-09-13T02:45:00;19.20;;;17.02;;
59300;SDS011;45073;52.740;6.784;2022-09-13T02:47:35;19.85;;;17.75;;
59300;SDS011;45073;52.740;6.784;2022-09-13T02:50:18;20.45;;;18.35;;
59300;SDS011;45073;52.740;6.784;2022-09-13T02:52:50;21.25;;;19.05;;
59300;SDS011;45073;52.740;6.784;2022-09-13T02:55:38;20.55;;;18.45;;
59300;SDS011;45073;52.740;6.784;2022-09-13T03:01:16;21.88;;;19.67;;
59300;SDS011;45073;52.740;6.784;2022-09-13T03:03:43;22.33;;;20.10;;
59300;SDS011;45073;52.740;6.784;2022-09-13T03:06:09;24.08;;;21.63;;
59300;SDS011;45073;52.740;6.784;2022-09-13T03:08:35;24.48;;;22.08;;
59300;SDS011;45073;52.740;6.784;2022-09-13T03:13:52;23.92;;;21.45;;
59300;SDS011;45073;52.740;6.784;2022-09-13T03:16:43;26.00;;;23.38;;
59300;SDS011;45073;52.740;6.784;2022-09-13T03:24:51;27.15;;;24.40;;
59300;SDS011;45073;52.740;6.784;2022-09-13T03:27:34;25.83;;;23.13;;
59300;SDS011;45073;52.740;6.784;2022-09-13T03:30:10;26.42;;;23.83;;
59300;SDS011;45073;52.740;6.784;2022-09-13T03:32:47;25.15;;;22.67;;
59300;SDS011;45073;52.740;6.784;2022-09-13T03:40:15;27.90;;;25.00;;
59300;SDS011;45073;52.740;6.784;2022-09-13T03:43:12;30.75;;;17.42;;
59300;SDS011;45073;52.740;6.784;2022-09-13T03:45:53;27.85;;;25.00;;
59300;SDS011;45073;52.740;6.784;2022-09-13T03:48:22;27.67;;;24.67;;
59300;SDS011;45073;52.740;6.784;2022-09-13T03:50:48;28.48;;;25.58;;
59300;SDS011;45073;52.740;6.784;2022-09-13T03:53:24;27.63;;;24.83;;
59300;SDS011;45073;52.740;6.784;2022-09-13T03:55:51;28.17;;;25.30;;
59300;SDS011;45073;52.740;6.784;2022-09-13T03:58:19;27.35;;;24.67;;
59300;SDS011;45073;52.740;6.784;2022-09-13T04:00:45;28.63;;;25.42;;
59300;SDS011;45073;52.740;6.784;2022-09-13T04:03:11;27.15;;;24.30;;
59300;SDS011;45073;52.740;6.784;2022-09-13T04:05:38;29.65;;;26.65;;
59300;SDS011;45073;52.740;6.784;2022-09-13T04:08:04;29.25;;;26.45;;
59300;SDS011;45073;52.740;6.784;2022-09-13T04:10:31;28.90;;;25.98;;
59300;SDS011;45073;52.740;6.784;2022-09-13T04:12:58;26.65;;;24.02;;
59300;SDS011;45073;52.740;6.784;2022-09-13T04:15:24;26.90;;;24.23;;
59300;SDS011;45073;52.740;6.784;2022-09-13T04:17:51;28.02;;;25.30;;
59300;SDS011;45073;52.740;6.784;2022-09-13T04:20:17;28.83;;;25.85;;
59300;SDS011;45073;52.740;6.784;2022-09-13T04:22:43;29.98;;;27.02;;
59300;SDS011;45073;52.740;6.784;2022-09-13T04:25:14;28.27;;;25.38;;
59300;SDS011;45073;52.740;6.784;2022-09-13T04:27:40;28.60;;;25.65;;
59300;SDS011;45073;52.740;6.784;2022-09-13T04:30:05;28.40;;;25.48;;
59300;SDS011;45073;52.740;6.784;2022-09-13T04:32:31;30.33;;;27.27;;
59300;SDS011;45073;52.740;6.784;2022-09-13T04:34:57;30.63;;;27.38;;
59300;SDS011;45073;52.740;6.784;2022-09-13T04:37:23;30.38;;;27.33;;
59300;SDS011;45073;52.740;6.784;2022-09-13T04:39:48;28.27;;;25.42;;
59300;SDS011;45073;52.740;6.784;2022-09-13T04:42:14;29.27;;;26.33;;
59300;SDS011;45073;52.740;6.784;2022-09-13T04:44:39;30.45;;;27.25;;
59300;SDS011;45073;52.740;6.784;2022-09-13T04:47:05;29.38;;;26.27;;
59300;SDS011;45073;52.740;6.784;2022-09-13T04:49:32;30.77;;;27.52;;
59300;SDS011;45073;52.740;6.784;2022-09-13T04:51:57;29.50;;;26.50;;
59300;SDS011;45073;52.740;6.784;2022-09-13T04:54:23;29.52;;;26.58;;
59300;SDS011;45073;52.740;6.784;2022-09-13T04:56:48;30.05;;;27.05;;
59300;SDS011;45073;52.740;6.784;2022-09-13T04:59:14;29.90;;;26.90;;
59300;SDS011;45073;52.740;6.784;2022-09-13T05:01:40;29.23;;;26.33;;
59300;SDS011;45073;52.740;6.784;2022-09-13T05:04:06;31.10;;;27.90;;
59300;SDS011;45073;52.740;6.784;2022-09-13T05:06:33;31.23;;;28.05;;
59300;SDS011;45073;52.740;6.784;2022-09-13T05:08:59;30.40;;;27.20;;
59300;SDS011;45073;52.740;6.784;2022-09-13T05:11:25;31.25;;;28.00;;
59300;SDS011;45073;52.740;6.784;2022-09-13T05:13:52;33.03;;;29.75;;
59300;SDS011;45073;52.740;6.784;2022-09-13T05:16:21;31.50;;;28.10;;
59300;SDS011;45073;52.740;6.784;2022-09-13T05:18:47;31.70;;;28.40;;
59300;SDS011;45073;52.740;6.784;2022-09-13T05:21:13;32.22;;;29.02;;
59300;SDS011;45073;52.740;6.784;2022-09-13T05:23:39;29.73;;;22.63;;
59300;SDS011;45073;52.740;6.784;2022-09-13T05:26:05;30.73;;;27.83;;
59300;SDS011;45073;52.740;6.784;2022-09-13T05:28:31;32.50;;;29.15;;
59300;SDS011;45073;52.740;6.784;2022-09-13T05:31:00;31.88;;;28.63;;
59300;SDS011;45073;52.740;6.784;2022-09-13T05:33:51;34.03;;;30.65;;
59300;SDS011;45073;52.740;6.784;2022-09-13T05:36:18;28.08;;;21.25;;
59300;SDS011;45073;52.740;6.784;2022-09-13T05:38:44;35.72;;;31.70;;
59300;SDS011;45073;52.740;6.784;2022-09-13T05:41:09;31.77;;;28.52;;
59300;SDS011;45073;52.740;6.784;2022-09-13T05:43:35;33.50;;;29.98;;
59300;SDS011;45073;52.740;6.784;2022-09-13T05:46:02;34.45;;;30.83;;
59300;SDS011;45073;52.740;6.784;2022-09-13T05:48:35;33.20;;;29.80;;
59300;SDS011;45073;52.740;6.784;2022-09-13T05:51:06;32.97;;;29.42;;
59300;SDS011;45073;52.740;6.784;2022-09-13T05:53:41;31.77;;;28.48;;
59300;SDS011;45073;52.740;6.784;2022-09-13T05:56:09;31.25;;;28.00;;
59300;SDS011;45073;52.740;6.784;2022-09-13T05:58:56;33.65;;;30.05;;
59300;SDS011;45073;52.740;6.784;2022-09-13T06:01:26;32.88;;;29.30;;
59300;SDS011;45073;52.740;6.784;2022-09-13T06:03:53;29.98;;;26.90;;
59300;SDS011;45073;52.740;6.784;2022-09-13T06:06:20;30.77;;;27.35;;
59300;SDS011;45073;52.740;6.784;2022-09-13T06:08:47;29.58;;;26.58;;
59300;SDS011;45073;52.740;6.784;2022-09-13T06:11:17;29.50;;;26.50;;
59300;SDS011;45073;52.740;6.784;2022-09-13T06:13:43;29.67;;;26.52;;
59300;SDS011;45073;52.740;6.784;2022-09-13T06:16:09;31.15;;;27.85;;
59300;SDS011;45073;52.740;6.784;2022-09-13T06:18:36;29.30;;;26.10;;
59300;SDS011;45073;52.740;6.784;2022-09-13T06:21:03;29.60;;;26.40;;
59300;SDS011;45073;52.740;6.784;2022-09-13T06:23:35;27.27;;;24.48;;
59300;SDS011;45073;52.740;6.784;2022-09-13T06:26:04;27.38;;;24.35;;
59300;SDS011;45073;52.740;6.784;2022-09-13T06:28:32;27.27;;;24.40;;
59300;SDS011;45073;52.740;6.784;2022-09-13T06:30:59;27.25;;;24.45;;
59300;SDS011;45073;52.740;6.784;2022-09-13T06:33:25;25.25;;;22.58;;
59300;SDS011;45073;52.740;6.784;2022-09-13T06:35:51;25.48;;;22.17;;
59300;SDS011;45073;52.740;6.784;2022-09-13T06:38:17;24.77;;;22.20;;
59300;SDS011;45073;52.740;6.784;2022-09-13T06:40:42;24.17;;;21.58;;
59300;SDS011;45073;52.740;6.784;2022-09-13T06:43:08;25.35;;;22.70;;
59300;SDS011;45073;52.740;6.784;2022-09-13T06:45:34;24.08;;;21.50;;
59300;SDS011;45073;52.740;6.784;2022-09-13T06:48:01;23.80;;;21.27;;
59300;SDS011;45073;52.740;6.784;2022-09-13T06:50:27;21.92;;;19.65;;
59300;SDS011;45073;52.740;6.784;2022-09-13T06:52:54;21.70;;;19.33;;
59300;SDS011;45073;52.740;6.784;2022-09-13T06:55:20;14.73;;;12.32;;
59300;SDS011;45073;52.740;6.784;2022-09-13T06:57:46;15.60;;;11.20;;
59300;SDS011;45073;52.740;6.784;2022-09-13T07:00:12;13.13;;;9.48;;
59300;SDS011;45073;52.740;6.784;2022-09-13T07:02:38;12.52;;;8.40;;
59300;SDS011;45073;52.740;6.784;2022-09-13T07:05:03;11.52;;;7.05;;
59300;SDS011;45073;52.740;6.784;2022-09-13T07:07:29;12.20;;;7.32;;
59300;SDS011;45073;52.740;6.784;2022-09-13T07:09:55;10.63;;;6.80;;
59300;SDS011;45073;52.740;6.784;2022-09-13T07:12:20;10.70;;;5.90;;
59300;SDS011;45073;52.740;6.784;2022-09-13T07:14:46;10.20;;;4.55;;
59300;SDS011;45073;52.740;6.784;2022-09-13T07:17:12;8.70;;;4.00;;
59300;SDS011;45073;52.740;6.784;2022-09-13T07:19:37;8.57;;;3.78;;
59300;SDS011;45073;52.740;6.784;2022-09-13T07:22:04;8.77;;;3.92;;
59300;SDS011;45073;52.740;6.784;2022-09-13T07:24:30;8.98;;;3.45;;
59300;SDS011;45073;52.740;6.784;2022-09-13T07:26:55;8.05;;;3.35;;
59300;SDS011;45073;52.740;6.784;2022-09-13T07:29:21;9.07;;;3.63;;
59300;SDS011;45073;52.740;6.784;2022-09-13T07:31:48;10.68;;;3.97;;
59300;SDS011;45073;52.740;6.784;2022-09-13T07:34:17;9.25;;;3.80;;
59300;SDS011;45073;52.740;6.784;2022-09-13T07:36:50;9.88;;;3.60;;
59300;SDS011;45073;52.740;6.784;2022-09-13T07:39:16;8.38;;;3.50;;
59300;SDS011;45073;52.740;6.784;2022-09-13T07:41:42;9.85;;;3.30;;
59300;SDS011;45073;52.740;6.784;2022-09-13T07:44:09;9.48;;;3.90;;
59300;SDS011;45073;52.740;6.784;2022-09-13T07:46:35;8.77;;;3.78;;
59300;SDS011;45073;52.740;6.784;2022-09-13T07:49:04;10.68;;;3.78;;
59300;SDS011;45073;52.740;6.784;2022-09-13T07:51:34;9.35;;;3.70;;
59300;SDS011;45073;52.740;6.784;2022-09-13T07:54:02;9.85;;;3.33;;
59300;SDS011;45073;52.740;6.784;2022-09-13T07:56:30;9.98;;;3.78;;
59300;SDS011;45073;52.740;6.784;2022-09-13T07:58:57;11.85;;;3.90;;
59300;SDS011;45073;52.740;6.784;2022-09-13T08:01:26;9.82;;;3.38;;
59300;SDS011;45073;52.740;6.784;2022-09-13T08:03:54;9.55;;;3.05;;
59300;SDS011;45073;52.740;6.784;2022-09-13T08:06:21;8.93;;;3.22;;
59300;SDS011;45073;52.740;6.784;2022-09-13T08:08:47;8.63;;;3.00;;
59300;SDS011;45073;52.740;6.784;2022-09-13T08:11:17;10.98;;;3.42;;
59300;SDS011;45073;52.740;6.784;2022-09-13T08:13:48;11.43;;;2.90;;
59300;SDS011;45073;52.740;6.784;2022-09-13T08:16:16;10.40;;;3.67;;
59300;SDS011;45073;52.740;6.784;2022-09-13T08:18:43;9.05;;;3.28;;
59300;SDS011;45073;52.740;6.784;2022-09-13T08:21:09;8.10;;;2.65;;
59300;SDS011;45073;52.740;6.784;2022-09-13T08:23:35;8.18;;;2.38;;
59300;SDS011;45073;52.740;6.784;2022-09-13T08:26:01;9.45;;;2.35;;
59300;SDS011;45073;52.740;6.784;2022-09-13T08:28:28;8.65;;;2.55;;
59300;SDS011;45073;52.740;6.784;2022-09-13T08:30:54;9.57;;;2.47;;
59300;SDS011;45073;52.740;6.784;2022-09-13T08:33:19;10.00;;;2.42;;
59300;SDS011;45073;52.740;6.784;2022-09-13T08:35:49;6.88;;;2.05;;
59300;SDS011;45073;52.740;6.784;2022-09-13T08:38:16;11.18;;;2.22;;
59300;SDS011;45073;52.740;6.784;2022-09-13T08:40:44;10.40;;;2.20;;
59300;SDS011;45073;52.740;6.784;2022-09-13T08:43:46;9.68;;;2.00;;
59300;SDS011;45073;52.740;6.784;2022-09-13T08:46:22;10.02;;;1.80;;
59300;SDS011;45073;52.740;6.784;2022-09-13T08:48:53;10.15;;;2.38;;
59300;SDS011;45073;52.740;6.784;2022-09-13T08:51:25;10.98;;;2.00;;
59300;SDS011;45073;52.740;6.784;2022-09-13T08:53:53;10.93;;;3.45;;
59300;SDS011;45073;52.740;6.784;2022-09-13T08:56:22;10.23;;;2.08;;
59300;SDS011;45073;52.740;6.784;2022-09-13T09:04:45;8.10;;;2.08;;
59300;SDS011;45073;52.740;6.784;2022-09-13T09:07:32;10.02;;;1.70;;
59300;SDS011;45073;52.740;6.784;2022-09-13T09:10:03;5.80;;;1.48;;
59300;SDS011;45073;52.740;6.784;2022-09-13T09:15:28;11.15;;;2.03;;
59300;SDS011;45073;52.740;6.784;2022-09-13T09:18:02;7.93;;;1.73;;
59300;SDS011;45073;52.740;6.784;2022-09-13T09:23:06;7.75;;;1.60;;
59300;SDS011;45073;52.740;6.784;2022-09-13T09:25:39;10.68;;;1.90;;
59300;SDS011;45073;52.740;6.784;2022-09-13T09:28:15;9.52;;;1.85;;
59300;SDS011;45073;52.740;6.784;2022-09-13T09:30:48;7.97;;;1.50;;
59300;SDS011;45073;52.740;6.784;2022-09-13T09:33:24;7.55;;;1.48;;
59300;SDS011;45073;52.740;6.784;2022-09-13T09:36:05;9.40;;;1.52;;
59300;SDS011;45073;52.740;6.784;2022-09-13T09:38:40;10.75;;;1.95;;
59300;SDS011;45073;52.740;6.784;2022-09-13T09:41:12;6.43;;;1.15;;
59300;SDS011;45073;52.740;6.784;2022-09-13T09:46:55;5.88;;;1.20;;
59300;SDS011;45073;52.740;6.784;2022-09-13T09:52:22;7.90;;;2.22;;
59300;SDS011;45073;52.740;6.784;2022-09-13T09:54:55;6.63;;;1.30;;
59300;SDS011;45073;52.740;6.784;2022-09-13T10:00:20;6.68;;;1.50;;
59300;SDS011;45073;52.740;6.784;2022-09-13T10:02:48;10.68;;;1.40;;
59300;SDS011;45073;52.740;6.784;2022-09-13T10:05:19;5.97;;;1.00;;
59300;SDS011;45073;52.740;6.784;2022-09-13T10:07:57;5.85;;;1.33;;
59300;SDS011;45073;52.740;6.784;2022-09-13T10:10:35;8.02;;;1.90;;
59300;SDS011;45073;52.740;6.784;2022-09-13T10:13:03;4.80;;;1.23;;
59300;SDS011;45073;52.740;6.784;2022-09-13T10:15:31;5.00;;;1.20;;
59300;SDS011;45073;52.740;6.784;2022-09-13T10:18:17;6.82;;;1.23;;
59300;SDS011;45073;52.740;6.784;2022-09-13T10:23:42;5.30;;;1.10;;
59300;SDS011;45073;52.740;6.784;2022-09-13T10:26:21;5.57;;;1.08;;
59300;SDS011;45073;52.740;6.784;2022-09-13T10:28:58;4.60;;;1.00;;
59300;SDS011;45073;52.740;6.784;2022-09-13T10:31:30;6.15;;;1.10;;
59300;SDS011;45073;52.740;6.784;2022-09-13T10:34:01;6.30;;;1.23;;
59300;SDS011;45073;52.740;6.784;2022-09-13T10:36:36;5.22;;;1.05;;
59300;SDS011;45073;52.740;6.784;2022-09-13T10:39:14;7.20;;;1.15;;
59300;SDS011;45073;52.740;6.784;2022-09-13T10:41:47;6.90;;;1.38;;
59300;SDS011;45073;52.740;6.784;2022-09-13T10:44:26;6.70;;;1.25;;
59300;SDS011;45073;52.740;6.784;2022-09-13T10:46:56;6.18;;;1.23;;
59300;SDS011;45073;52.740;6.784;2022-09-13T10:49:34;5.57;;;1.30;;
59300;SDS011;45073;52.740;6.784;2022-09-13T10:52:23;5.22;;;1.05;;
59300;SDS011;45073;52.740;6.784;2022-09-13T10:54:51;7.22;;;1.25;;
59300;SDS011;45073;52.740;6.784;2022-09-13T10:57:26;6.22;;;1.10;;
59300;SDS011;45073;52.740;6.784;2022-09-13T10:59:58;5.40;;;0.90;;
59300;SDS011;45073;52.740;6.784;2022-09-13T11:15:51;5.80;;;1.05;;
59300;SDS011;45073;52.740;6.784;2022-09-13T11:18:43;6.65;;;1.38;;
59300;SDS011;45073;52.740;6.784;2022-09-13T11:26:54;5.25;;;0.85;;
59300;SDS011;45073;52.740;6.784;2022-09-13T11:35:27;4.97;;;0.90;;
59300;SDS011;45073;52.740;6.784;2022-09-13T11:43:04;6.07;;;1.27;;
59300;SDS011;45073;52.740;6.784;2022-09-13T11:45:58;6.15;;;1.05;;
59300;SDS011;45073;52.740;6.784;2022-09-13T11:48:41;5.63;;;1.30;;
59300;SDS011;45073;52.740;6.784;2022-09-13T11:56:54;4.45;;;1.10;;
59300;SDS011;45073;52.740;6.784;2022-09-13T11:59:29;5.57;;;0.93;;
59300;SDS011;45073;52.740;6.784;2022-09-13T12:02:17;4.82;;;0.90;;
59300;SDS011;45073;52.740;6.784;2022-09-13T12:04:53;5.95;;;0.80;;
59300;SDS011;45073;52.740;6.784;2022-09-13T12:07:28;6.88;;;1.00;;
59300;SDS011;45073;52.740;6.784;2022-09-13T12:10:21;8.13;;;1.02;;
59300;SDS011;45073;52.740;6.784;2022-09-13T12:12:44;6.85;;;1.27;;
59300;SDS011;45073;52.740;6.784;2022-09-13T12:15:15;5.88;;;1.10;;
59300;SDS011;45073;52.740;6.784;2022-09-13T12:17:51;7.38;;;0.93;;
59300;SDS011;45073;52.740;6.784;2022-09-13T12:20:29;6.28;;;0.90;;
59300;SDS011;45073;52.740;6.784;2022-09-13T12:22:58;7.50;;;1.45;;
59300;SDS011;45073;52.740;6.784;2022-09-13T12:25:33;5.85;;;0.98;;
59300;SDS011;45073;52.740;6.784;2022-09-13T12:28:17;4.72;;;0.93;;
59300;SDS011;45073;52.740;6.784;2022-09-13T12:30:56;5.32;;;0.98;;
59300;SDS011;45073;52.740;6.784;2022-09-13T12:33:24;4.10;;;0.90;;
59300;SDS011;45073;52.740;6.784;2022-09-13T12:35:54;5.80;;;0.93;;
59300;SDS011;45073;52.740;6.784;2022-09-13T12:41:43;6.88;;;1.10;;
59300;SDS011;45073;52.740;6.784;2022-09-13T12:44:31;5.68;;;0.93;;
59300;SDS011;45073;52.740;6.784;2022-09-13T12:47:15;5.00;;;1.20;;
59300;SDS011;45073;52.740;6.784;2022-09-13T12:49:48;6.28;;;1.00;;
59300;SDS011;45073;52.740;6.784;2022-09-13T12:52:39;6.82;;;1.17;;
59300;SDS011;45073;52.740;6.784;2022-09-13T12:55:17;9.18;;;1.30;;
59300;SDS011;45073;52.740;6.784;2022-09-13T13:00:32;5.75;;;1.08;;
59300;SDS011;45073;52.740;6.784;2022-09-13T13:05:51;8.77;;;1.27;;
59300;SDS011;45073;52.740;6.784;2022-09-13T13:08:50;5.95;;;1.00;;
59300;SDS011;45073;52.740;6.784;2022-09-13T13:11:19;6.65;;;1.00;;
59300;SDS011;45073;52.740;6.784;2022-09-13T13:13:52;8.07;;;1.30;;
59300;SDS011;45073;52.740;6.784;2022-09-13T13:16:31;7.10;;;1.50;;
59300;SDS011;45073;52.740;6.784;2022-09-13T13:18:59;8.77;;;1.23;;
59300;SDS011;45073;52.740;6.784;2022-09-13T13:21:36;6.93;;;1.48;;
59300;SDS011;45073;52.740;6.784;2022-09-13T13:26:42;10.13;;;1.65;;
59300;SDS011;45073;52.740;6.784;2022-09-13T13:29:13;4.88;;;1.00;;
59300;SDS011;45073;52.740;6.784;2022-09-13T13:36:59;5.32;;;0.90;;
59300;SDS011;45073;52.740;6.784;2022-09-13T13:39:35;7.13;;;1.40;;
59300;SDS011;45073;52.740;6.784;2022-09-13T13:44:55;6.80;;;1.30;;
59300;SDS011;45073;52.740;6.784;2022-09-13T13:52:40;5.43;;;1.10;;
59300;SDS011;45073;52.740;6.784;2022-09-13T13:55:28;6.70;;;1.10;;
59300;SDS011;45073;52.740;6.784;2022-09-13T14:00:48;5.97;;;1.25;;
59300;SDS011;45073;52.740;6.784;2022-09-13T14:03:28;8.40;;;1.23;;
59300;SDS011;45073;52.740;6.784;2022-09-13T14:06:23;6.95;;;1.20;;
59300;SDS011;45073;52.740;6.784;2022-09-13T14:20:20;5.22;;;1.10;;
59300;SDS011;45073;52.740;6.784;2022-09-13T14:22:46;6.15;;;1.13;;
59300;SDS011;45073;52.740;6.784;2022-09-13T14:25:21;5.82;;;1.23;;
59300;SDS011;45073;52.740;6.784;2022-09-13T14:27:49;6.45;;;1.15;;
59300;SDS011;45073;52.740;6.784;2022-09-13T14:30:22;5.95;;;1.10;;
59300;SDS011;45073;52.740;6.784;2022-09-13T14:32:52;6.63;;;1.23;;
59300;SDS011;45073;52.740;6.784;2022-09-13T14:40:35;7.72;;;1.40;;
59300;SDS011;45073;52.740;6.784;2022-09-13T14:43:04;6.00;;;1.10;;
59300;SDS011;45073;52.740;6.784;2022-09-13T14:45:38;6.28;;;0.98;;
59300;SDS011;45073;52.740;6.784;2022-09-13T14:48:09;6.40;;;1.00;;
59300;SDS011;45073;52.740;6.784;2022-09-13T14:53:19;7.07;;;1.10;;
59300;SDS011;45073;52.740;6.784;2022-09-13T14:55:54;5.05;;;1.00;;
59300;SDS011;45073;52.740;6.784;2022-09-13T14:58:27;6.30;;;1.08;;
59300;SDS011;45073;52.740;6.784;2022-09-13T15:03:26;6.85;;;1.10;;
59300;SDS011;45073;52.740;6.784;2022-09-13T15:05:53;8.35;;;1.38;;
59300;SDS011;45073;52.740;6.784;2022-09-13T15:11:03;8.65;;;1.48;;
59300;SDS011;45073;52.740;6.784;2022-09-13T15:13:30;5.72;;;1.00;;
59300;SDS011;45073;52.740;6.784;2022-09-13T15:15:56;4.55;;;1.10;;
59300;SDS011;45073;52.740;6.784;2022-09-13T15:18:29;5.70;;;1.08;;
59300;SDS011;45073;52.740;6.784;2022-09-13T15:20:57;6.43;;;1.10;;
59300;SDS011;45073;52.740;6.784;2022-09-13T15:23:35;8.05;;;1.30;;
59300;SDS011;45073;52.740;6.784;2022-09-13T15:28:35;5.95;;;1.40;;
59300;SDS011;45073;52.740;6.784;2022-09-13T15:31:20;7.30;;;1.30;;
59300;SDS011;45073;52.740;6.784;2022-09-13T15:33:46;5.40;;;1.15;;
59300;SDS011;45073;52.740;6.784;2022-09-13T15:39:03;6.15;;;1.20;;
59300;SDS011;45073;52.740;6.784;2022-09-13T15:41:51;7.18;;;1.55;;
59300;SDS011;45073;52.740;6.784;2022-09-13T15:44:19;4.20;;;0.93;;
59300;SDS011;45073;52.740;6.784;2022-09-13T15:46:49;6.60;;;1.38;;
59300;SDS011;45073;52.740;6.784;2022-09-13T15:49:18;5.47;;;1.00;;
59300;SDS011;45073;52.740;6.784;2022-09-13T15:51:52;7.72;;;1.20;;
59300;SDS011;45073;52.740;6.784;2022-09-13T15:54:19;11.65;;;1.85;;
59300;SDS011;45073;52.740;6.784;2022-09-13T15:56:47;6.68;;;1.20;;
59300;SDS011;45073;52.740;6.784;2022-09-13T15:59:16;7.03;;;1.20;;
59300;SDS011;45073;52.740;6.784;2022-09-13T16:01:49;9.30;;;1.50;;
59300;SDS011;45073;52.740;6.784;2022-09-13T16:04:16;7.50;;;1.30;;
59300;SDS011;45073;52.740;6.784;2022-09-13T16:06:42;6.82;;;1.30;;
59300;SDS011;45073;52.740;6.784;2022-09-13T16:09:19;7.38;;;1.40;;
59300;SDS011;45073;52.740;6.784;2022-09-13T16:11:46;7.22;;;1.45;;
59300;SDS011;45073;52.740;6.784;2022-09-13T16:14:12;9.57;;;1.58;;
59300;SDS011;45073;52.740;6.784;2022-09-13T16:16:38;6.97;;;1.38;;
59300;SDS011;45073;52.740;6.784;2022-09-13T16:19:04;10.52;;;1.70;;
59300;SDS011;45073;52.740;6.784;2022-09-13T16:21:30;10.27;;;1.95;;
59300;SDS011;45073;52.740;6.784;2022-09-13T16:23:55;8.05;;;1.60;;
59300;SDS011;45073;52.740;6.784;2022-09-13T16:26:21;8.88;;;3.03;;
59300;SDS011;45073;52.740;6.784;2022-09-13T16:28:46;9.43;;;1.80;;
59300;SDS011;45073;52.740;6.784;2022-09-13T16:31:12;8.25;;;1.63;;
59300;SDS011;45073;52.740;6.784;2022-09-13T16:33:41;6.88;;;1.75;;
59300;SDS011;45073;52.740;6.784;2022-09-13T16:36:08;7.93;;;1.40;;
59300;SDS011;45073;52.740;6.784;2022-09-13T16:38:36;6.30;;;1.35;;
59300;SDS011;45073;52.740;6.784;2022-09-13T16:41:05;8.88;;;2.33;;
59300;SDS011;45073;52.740;6.784;2022-09-13T16:43:31;9.57;;;2.13;;
59300;SDS011;45073;52.740;6.784;2022-09-13T16:45:57;8.30;;;2.13;;
59300;SDS011;45073;52.740;6.784;2022-09-13T16:48:23;8.00;;;1.67;;
59300;SDS011;45073;52.740;6.784;2022-09-13T16:50:49;7.72;;;1.90;;
59300;SDS011;45073;52.740;6.784;2022-09-13T16:53:15;9.50;;;1.77;;
59300;SDS011;45073;52.740;6.784;2022-09-13T16:55:40;7.03;;;1.88;;
59300;SDS011;45073;52.740;6.784;2022-09-13T16:58:06;7.43;;;1.80;;
59300;SDS011;45073;52.740;6.784;2022-09-13T17:00:32;10.65;;;1.92;;
59300;SDS011;45073;52.740;6.784;2022-09-13T17:02:58;8.30;;;1.52;;
59300;SDS011;45073;52.740;6.784;2022-09-13T17:05:24;9.38;;;1.58;;
59300;SDS011;45073;52.740;6.784;2022-09-13T17:07:50;8.93;;;1.55;;
59300;SDS011;45073;52.740;6.784;2022-09-13T17:10:17;10.43;;;1.50;;
59300;SDS011;45073;52.740;6.784;2022-09-13T17:12:43;7.25;;;1.50;;
59300;SDS011;45073;52.740;6.784;2022-09-13T17:15:08;9.27;;;1.75;;
59300;SDS011;45073;52.740;6.784;2022-09-13T17:17:34;10.75;;;2.70;;
59300;SDS011;45073;52.740;6.784;2022-09-13T17:20:10;8.60;;;2.05;;
59300;SDS011;45073;52.740;6.784;2022-09-13T17:22:37;8.80;;;1.70;;
59300;SDS011;45073;52.740;6.784;2022-09-13T17:25:03;6.65;;;1.30;;
59300;SDS011;45073;52.740;6.784;2022-09-13T17:27:31;9.13;;;1.65;;
59300;SDS011;45073;52.740;6.784;2022-09-13T17:29:57;9.13;;;1.50;;
59300;SDS011;45073;52.740;6.784;2022-09-13T17:32:22;9.20;;;2.05;;
59300;SDS011;45073;52.740;6.784;2022-09-13T17:34:48;8.43;;;1.60;;
59300;SDS011;45073;52.740;6.784;2022-09-13T17:37:13;9.32;;;2.30;;
59300;SDS011;45073;52.740;6.784;2022-09-13T17:39:39;8.68;;;1.80;;